JFA01A EGJJ-EGTF
Flight info
| Callsign | JFA01A |
|---|---|
| Flight time | 0h 43m |
| Altitude | 23000 |
| Route | ORIST DCT KATHY DCT BIDVA DCT MID DCT OCK |
| Aircraft | PC12/L-SDFGRWY/S |
Departure
| Time | 2026-04-22 17:17 |
|---|---|
| Airport | Jersey Airport (EGJJ) |
Arrival
| Time | 2026-04-22 18:01 |
|---|---|
| Airport | Fairoaks Airport (EGTF) |
| Time | Latitude | Longitude | Altitude | Speed | Heading |
|---|---|---|---|---|---|
| 2026-04-22 16:36 | 49.20352 | -2.19333 | 280 ft | 0 kts | 86° |
| 2026-04-22 17:05 | 49.20352 | -2.19332 | 280 ft | 0 kts | 80° |
| 2026-04-22 17:06 | 49.20374 | -2.19303 | 280 ft | 9 kts | 360° |
| 2026-04-22 17:06 | 49.20398 | -2.19391 | 280 ft | 16 kts | 269° |
| 2026-04-22 17:06 | 49.20422 | -2.19542 | 280 ft | 17 kts | 286° |
| 2026-04-22 17:06 | 49.20443 | -2.19664 | 280 ft | 0 kts | 280° |
| 2026-04-22 17:07 | 49.20444 | -2.19688 | 280 ft | 5 kts | 268° |
| 2026-04-22 17:07 | 49.20437 | -2.19775 | 280 ft | 11 kts | 263° |
| 2026-04-22 17:07 | 49.20442 | -2.19907 | 280 ft | 14 kts | 324° |
| 2026-04-22 17:07 | 49.20514 | -2.19961 | 280 ft | 12 kts | 283° |
| 2026-04-22 17:08 | 49.20539 | -2.20097 | 280 ft | 15 kts | 287° |
| 2026-04-22 17:08 | 49.20573 | -2.20268 | 280 ft | 18 kts | 288° |
| 2026-04-22 17:08 | 49.20612 | -2.20469 | 280 ft | 21 kts | 285° |
| 2026-04-22 17:08 | 49.20621 | -2.20517 | 280 ft | 3 kts | 286° |
| 2026-04-22 17:09 | 49.20622 | -2.20529 | 280 ft | 0 kts | 273° |
| 2026-04-22 17:13 | 49.20622 | -2.20531 | 280 ft | 1 kts | 274° |
| 2026-04-22 17:14 | 49.20625 | -2.20574 | 280 ft | 8 kts | 276° |
| 2026-04-22 17:14 | 49.20640 | -2.20685 | 280 ft | 13 kts | 317° |
| 2026-04-22 17:14 | 49.20706 | -2.20640 | 279 ft | 11 kts | 78° |
| 2026-04-22 17:14 | 49.20711 | -2.20591 | 279 ft | 0 kts | 82° |
| 2026-04-22 17:16 | 49.20726 | -2.20438 | 280 ft | 37 kts | 83° |
| 2026-04-22 17:16 | 49.20777 | -2.19822 | 283 ft | 77 kts | 82° |
| 2026-04-22 17:17 | 49.20849 | -2.18999 | 579 ft | 75 kts | 82° |
| 2026-04-22 17:17 | 49.20926 | -2.18140 | 844 ft | 87 kts | 83° |
| 2026-04-22 17:17 | 49.20977 | -2.17161 | 1161 ft | 97 kts | 86° |
| 2026-04-22 17:17 | 49.21011 | -2.15994 | 1452 ft | 118 kts | 91° |
| 2026-04-22 17:18 | 49.21004 | -2.14733 | 1897 ft | 123 kts | 93° |
| 2026-04-22 17:18 | 49.20973 | -2.13379 | 2268 ft | 131 kts | 92° |
| 2026-04-22 17:18 | 49.20977 | -2.11985 | 2696 ft | 134 kts | 92° |
| 2026-04-22 17:18 | 49.20993 | -2.10518 | 3066 ft | 141 kts | 92° |
| 2026-04-22 17:19 | 49.21000 | -2.07329 | 3682 ft | 158 kts | 93° |
| 2026-04-22 17:19 | 49.20967 | -2.03900 | 4395 ft | 165 kts | 95° |
| 2026-04-22 17:20 | 49.20900 | -2.00328 | 5151 ft | 169 kts | 96° |
| 2026-04-22 17:20 | 49.20812 | -1.96689 | 5903 ft | 172 kts | 96° |
| 2026-04-22 17:21 | 49.20763 | -1.94874 | 6275 ft | 174 kts | 97° |
| 2026-04-22 17:21 | 49.20831 | -1.91150 | 7017 ft | 181 kts | 68° |
| 2026-04-22 17:22 | 49.22860 | -1.89028 | 7776 ft | 193 kts | 1° |
| 2026-04-22 17:22 | 49.24194 | -1.89255 | 8154 ft | 192 kts | 352° |
| 2026-04-22 17:22 | 49.26853 | -1.89868 | 8921 ft | 193 kts | 353° |
| 2026-04-22 17:23 | 49.28168 | -1.90162 | 9306 ft | 193 kts | 352° |
| 2026-04-22 17:23 | 49.30855 | -1.90765 | 10088 ft | 196 kts | 352° |
| 2026-04-22 17:23 | 49.32206 | -1.91069 | 10445 ft | 197 kts | 352° |
| 2026-04-22 17:24 | 49.33570 | -1.91377 | 10813 ft | 197 kts | 352° |
| 2026-04-22 17:24 | 49.34930 | -1.91683 | 11177 ft | 197 kts | 352° |
| 2026-04-22 17:24 | 49.36272 | -1.91986 | 11551 ft | 198 kts | 352° |
| 2026-04-22 17:24 | 49.37640 | -1.92295 | 11915 ft | 198 kts | 351° |
| 2026-04-22 17:25 | 49.39006 | -1.92604 | 12296 ft | 198 kts | 351° |
| 2026-04-22 17:25 | 49.40370 | -1.92912 | 12678 ft | 198 kts | 351° |
| 2026-04-22 17:25 | 49.41721 | -1.93217 | 13005 ft | 202 kts | 351° |
| 2026-04-22 17:25 | 49.43174 | -1.93545 | 13020 ft | 219 kts | 351° |
| 2026-04-22 17:26 | 49.44727 | -1.93894 | 13025 ft | 231 kts | 351° |
| 2026-04-22 17:26 | 49.46348 | -1.94260 | 13031 ft | 239 kts | 351° |
| 2026-04-22 17:26 | 49.48020 | -1.94640 | 13034 ft | 245 kts | 351° |
| 2026-04-22 17:26 | 49.49701 | -1.95021 | 13036 ft | 249 kts | 351° |
| 2026-04-22 17:27 | 49.51427 | -1.95413 | 13041 ft | 251 kts | 352° |
| 2026-04-22 17:27 | 49.53166 | -1.95808 | 13043 ft | 253 kts | 352° |
| 2026-04-22 17:27 | 49.54920 | -1.96206 | 13043 ft | 254 kts | 352° |
| 2026-04-22 17:27 | 49.56677 | -1.96606 | 13045 ft | 255 kts | 352° |
| 2026-04-22 17:28 | 49.58433 | -1.97006 | 13048 ft | 257 kts | 352° |
| 2026-04-22 17:28 | 49.60187 | -1.97405 | 13052 ft | 258 kts | 352° |
| 2026-04-22 17:28 | 49.61964 | -1.97810 | 13053 ft | 257 kts | 352° |
| 2026-04-22 17:28 | 49.63730 | -1.98213 | 13054 ft | 256 kts | 352° |
| 2026-04-22 17:29 | 49.65497 | -1.98616 | 13055 ft | 256 kts | 352° |
| 2026-04-22 17:29 | 49.67251 | -1.99017 | 13055 ft | 255 kts | 352° |
| 2026-04-22 17:29 | 49.69011 | -1.99420 | 13056 ft | 255 kts | 352° |
| 2026-04-22 17:29 | 49.70773 | -1.99823 | 13054 ft | 255 kts | 352° |
| 2026-04-22 17:30 | 49.72527 | -2.00225 | 13053 ft | 255 kts | 352° |
| 2026-04-22 17:30 | 49.74283 | -2.00627 | 13052 ft | 255 kts | 352° |
| 2026-04-22 17:30 | 49.76022 | -2.01027 | 13052 ft | 256 kts | 352° |
| 2026-04-22 17:30 | 49.77789 | -2.01394 | 13051 ft | 255 kts | 357° |
| 2026-04-22 17:31 | 49.79527 | -2.00959 | 13044 ft | 254 kts | 21° |
| 2026-04-22 17:31 | 49.81117 | -1.99762 | 13045 ft | 253 kts | 28° |
| 2026-04-22 17:31 | 49.82654 | -1.98503 | 13046 ft | 253 kts | 28° |
| 2026-04-22 17:31 | 49.84218 | -1.97225 | 13046 ft | 254 kts | 28° |
| 2026-04-22 17:32 | 49.85785 | -1.95965 | 13045 ft | 254 kts | 28° |
| 2026-04-22 17:32 | 49.87362 | -1.94703 | 13049 ft | 254 kts | 28° |
| 2026-04-22 17:32 | 49.88935 | -1.93437 | 13049 ft | 254 kts | 28° |
| 2026-04-22 17:32 | 49.90485 | -1.92187 | 13049 ft | 254 kts | 28° |
| 2026-04-22 17:33 | 49.91546 | -1.91331 | 13050 ft | 254 kts | 28° |
| 2026-04-22 17:33 | 49.93627 | -1.89651 | 13051 ft | 254 kts | 28° |
| 2026-04-22 17:33 | 49.95203 | -1.88380 | 13051 ft | 254 kts | 28° |
| 2026-04-22 17:33 | 49.96773 | -1.87113 | 13055 ft | 255 kts | 29° |
| 2026-04-22 17:34 | 49.98347 | -1.85839 | 13055 ft | 255 kts | 29° |
| 2026-04-22 17:34 | 49.99922 | -1.84557 | 13056 ft | 254 kts | 30° |
| 2026-04-22 17:34 | 50.01403 | -1.83121 | 13053 ft | 253 kts | 33° |
| 2026-04-22 17:34 | 50.02903 | -1.81681 | 13055 ft | 253 kts | 33° |
| 2026-04-22 17:35 | 50.04396 | -1.80240 | 13058 ft | 252 kts | 36° |
| 2026-04-22 17:35 | 50.05875 | -1.78795 | 13064 ft | 251 kts | 35° |
| 2026-04-22 17:35 | 50.07354 | -1.77353 | 13064 ft | 251 kts | 34° |
| 2026-04-22 17:35 | 50.08819 | -1.75926 | 13064 ft | 250 kts | 34° |
| 2026-04-22 17:36 | 50.10299 | -1.74484 | 13067 ft | 250 kts | 34° |
| 2026-04-22 17:36 | 50.11778 | -1.73041 | 13066 ft | 250 kts | 34° |
| 2026-04-22 17:36 | 50.13256 | -1.71598 | 13066 ft | 250 kts | 34° |
| 2026-04-22 17:36 | 50.14713 | -1.70173 | 13073 ft | 250 kts | 35° |
| 2026-04-22 17:37 | 50.16187 | -1.68734 | 13072 ft | 250 kts | 34° |
| 2026-04-22 17:37 | 50.17664 | -1.67289 | 13073 ft | 250 kts | 34° |
| 2026-04-22 17:37 | 50.19138 | -1.65844 | 13070 ft | 250 kts | 36° |
| 2026-04-22 17:37 | 50.20614 | -1.64396 | 13073 ft | 249 kts | 36° |
| 2026-04-22 17:38 | 50.22085 | -1.62955 | 13073 ft | 249 kts | 34° |
| 2026-04-22 17:38 | 50.23537 | -1.61533 | 13076 ft | 249 kts | 36° |
| 2026-04-22 17:38 | 50.25007 | -1.60086 | 13078 ft | 249 kts | 34° |
| 2026-04-22 17:38 | 50.26475 | -1.58647 | 13077 ft | 249 kts | 35° |
| 2026-04-22 17:39 | 50.27948 | -1.57200 | 13079 ft | 249 kts | 37° |
| 2026-04-22 17:39 | 50.29415 | -1.55751 | 13080 ft | 249 kts | 35° |
| 2026-04-22 17:39 | 50.32338 | -1.52871 | 13083 ft | 249 kts | 36° |
| 2026-04-22 17:40 | 50.33806 | -1.51423 | 13088 ft | 249 kts | 35° |
| 2026-04-22 17:40 | 50.35277 | -1.49971 | 13088 ft | 249 kts | 34° |
| 2026-04-22 17:40 | 50.36745 | -1.48521 | 13089 ft | 249 kts | 37° |
| 2026-04-22 17:40 | 50.38208 | -1.47076 | 13090 ft | 249 kts | 34° |
| 2026-04-22 17:41 | 50.39656 | -1.45644 | 13091 ft | 249 kts | 36° |
| 2026-04-22 17:41 | 50.41120 | -1.44192 | 13092 ft | 249 kts | 37° |
| 2026-04-22 17:41 | 50.42590 | -1.42735 | 13093 ft | 249 kts | 36° |
| 2026-04-22 17:41 | 50.44056 | -1.41282 | 13096 ft | 249 kts | 37° |
| 2026-04-22 17:42 | 50.45514 | -1.39831 | 13093 ft | 248 kts | 37° |
| 2026-04-22 17:42 | 50.46977 | -1.38379 | 13092 ft | 248 kts | 36° |
| 2026-04-22 17:42 | 50.47946 | -1.37419 | 13094 ft | 248 kts | 35° |
| 2026-04-22 17:42 | 50.49410 | -1.35966 | 13093 ft | 247 kts | 37° |
| 2026-04-22 17:43 | 50.51329 | -1.34055 | 13100 ft | 246 kts | 38° |
| 2026-04-22 17:43 | 50.52711 | -1.32487 | 13096 ft | 243 kts | 44° |
| 2026-04-22 17:43 | 50.54008 | -1.30784 | 13097 ft | 243 kts | 45° |
| 2026-04-22 17:43 | 50.54873 | -1.29646 | 13096 ft | 243 kts | 43° |
| 2026-04-22 17:44 | 50.56171 | -1.27942 | 13098 ft | 244 kts | 43° |
| 2026-04-22 17:44 | 50.57477 | -1.26228 | 13099 ft | 243 kts | 46° |
| 2026-04-22 17:44 | 50.58780 | -1.24517 | 13101 ft | 244 kts | 45° |
| 2026-04-22 17:44 | 50.60082 | -1.22810 | 13103 ft | 245 kts | 43° |
| 2026-04-22 17:45 | 50.61399 | -1.21077 | 13107 ft | 245 kts | 43° |
| 2026-04-22 17:45 | 50.62707 | -1.19358 | 13110 ft | 245 kts | 43° |
| 2026-04-22 17:45 | 50.64015 | -1.17644 | 13114 ft | 244 kts | 42° |
| 2026-04-22 17:45 | 50.65409 | -1.16109 | 13111 ft | 245 kts | 38° |
| 2026-04-22 17:46 | 50.66792 | -1.14578 | 13108 ft | 246 kts | 40° |
| 2026-04-22 17:46 | 50.68176 | -1.13028 | 13109 ft | 245 kts | 38° |
| 2026-04-22 17:46 | 50.69579 | -1.11475 | 13121 ft | 246 kts | 39° |
| 2026-04-22 17:46 | 50.70984 | -1.09926 | 13095 ft | 248 kts | 40° |
| 2026-04-22 17:47 | 50.72405 | -1.08356 | 13039 ft | 249 kts | 39° |
| 2026-04-22 17:47 | 50.73880 | -1.06875 | 12733 ft | 260 kts | 30° |
| 2026-04-22 17:47 | 50.75542 | -1.05637 | 12401 ft | 268 kts | 30° |
| 2026-04-22 17:47 | 50.77251 | -1.04422 | 12076 ft | 271 kts | 28° |
| 2026-04-22 17:48 | 50.78960 | -1.03143 | 11754 ft | 272 kts | 30° |
| 2026-04-22 17:48 | 50.80675 | -1.01828 | 11429 ft | 274 kts | 30° |
| 2026-04-22 17:48 | 50.82402 | -1.00520 | 11139 ft | 273 kts | 29° |
| 2026-04-22 17:48 | 50.84092 | -0.99258 | 11129 ft | 264 kts | 29° |
| 2026-04-22 17:49 | 50.85735 | -0.98022 | 11128 ft | 259 kts | 30° |
| 2026-04-22 17:49 | 50.87349 | -0.96800 | 11128 ft | 256 kts | 30° |
| 2026-04-22 17:49 | 50.88930 | -0.95603 | 11111 ft | 254 kts | 31° |
| 2026-04-22 17:49 | 50.90588 | -0.94345 | 10784 ft | 265 kts | 30° |
| 2026-04-22 17:50 | 50.92244 | -0.93090 | 10464 ft | 270 kts | 30° |
| 2026-04-22 17:50 | 50.93950 | -0.91802 | 10154 ft | 272 kts | 30° |
| 2026-04-22 17:50 | 50.95657 | -0.90511 | 9817 ft | 273 kts | 31° |
| 2026-04-22 17:50 | 50.97380 | -0.89203 | 9480 ft | 273 kts | 30° |
| 2026-04-22 17:51 | 50.99088 | -0.87907 | 9145 ft | 272 kts | 30° |
| 2026-04-22 17:51 | 51.00781 | -0.86621 | 8814 ft | 272 kts | 31° |
| 2026-04-22 17:51 | 51.02511 | -0.85306 | 8478 ft | 271 kts | 30° |
| 2026-04-22 17:51 | 51.04174 | -0.84043 | 8153 ft | 266 kts | 30° |
| 2026-04-22 17:52 | 51.05830 | -0.82779 | 7839 ft | 264 kts | 30° |
| 2026-04-22 17:52 | 51.07487 | -0.81516 | 7517 ft | 263 kts | 31° |
| 2026-04-22 17:52 | 51.09136 | -0.80259 | 7197 ft | 262 kts | 31° |
| 2026-04-22 17:52 | 51.10788 | -0.78996 | 6772 ft | 263 kts | 30° |
| 2026-04-22 17:53 | 51.12430 | -0.77741 | 6314 ft | 259 kts | 30° |
| 2026-04-22 17:53 | 51.14054 | -0.76552 | 5854 ft | 254 kts | 25° |
| 2026-04-22 17:53 | 51.15717 | -0.75762 | 5413 ft | 251 kts | 20° |
| 2026-04-22 17:53 | 51.17342 | -0.74859 | 4958 ft | 243 kts | 33° |
| 2026-04-22 17:54 | 51.18596 | -0.73142 | 4473 ft | 233 kts | 56° |
| 2026-04-22 17:54 | 51.19499 | -0.71051 | 4013 ft | 226 kts | 61° |
| 2026-04-22 17:54 | 51.20352 | -0.68986 | 3562 ft | 220 kts | 61° |
| 2026-04-22 17:54 | 51.21187 | -0.66988 | 3102 ft | 214 kts | 61° |
| 2026-04-22 17:55 | 51.21987 | -0.65091 | 3007 ft | 200 kts | 61° |
| 2026-04-22 17:55 | 51.22997 | -0.63665 | 3005 ft | 199 kts | 28° |
| 2026-04-22 17:55 | 51.24399 | -0.63256 | 2671 ft | 209 kts | 12° |
| 2026-04-22 17:55 | 51.25851 | -0.63101 | 2418 ft | 208 kts | 10° |
| 2026-04-22 17:56 | 51.27296 | -0.62945 | 2158 ft | 207 kts | 10° |
| 2026-04-22 17:56 | 51.28714 | -0.62779 | 2006 ft | 198 kts | 11° |
| 2026-04-22 17:56 | 51.30046 | -0.62632 | 2004 ft | 185 kts | 11° |
| 2026-04-22 17:56 | 51.31279 | -0.62342 | 1909 ft | 172 kts | 28° |
| 2026-04-22 17:57 | 51.32152 | -0.61123 | 1545 ft | 171 kts | 60° |
| 2026-04-22 17:57 | 51.32747 | -0.59439 | 1084 ft | 178 kts | 57° |
| 2026-04-22 17:57 | 51.33702 | -0.58158 | 639 ft | 178 kts | 41° |
| 2026-04-22 17:57 | 51.34484 | -0.56712 | 191 ft | 165 kts | 61° |
| 2026-04-22 17:58 | 51.35029 | -0.55433 | 604 ft | 109 kts | 58° |
| 2026-04-22 17:58 | 51.35576 | -0.54966 | 908 ft | 96 kts | 359° |
| 2026-04-22 17:58 | 51.36074 | -0.55799 | 992 ft | 115 kts | 305° |
| 2026-04-22 17:58 | 51.36009 | -0.57074 | 998 ft | 130 kts | 216° |
| 2026-04-22 17:59 | 51.35264 | -0.57953 | 1023 ft | 133 kts | 212° |
| 2026-04-22 17:59 | 51.34688 | -0.59193 | 1062 ft | 143 kts | 227° |
| 2026-04-22 17:59 | 51.34027 | -0.60231 | 1111 ft | 122 kts | 186° |
| 2026-04-22 17:59 | 51.33488 | -0.59841 | 1002 ft | 84 kts | 91° |
| 2026-04-22 18:00 | 51.33594 | -0.59219 | 838 ft | 88 kts | 63° |
| 2026-04-22 18:00 | 51.33940 | -0.58112 | 629 ft | 83 kts | 57° |
| 2026-04-22 18:00 | 51.34238 | -0.57334 | 335 ft | 81 kts | 58° |
| 2026-04-22 18:00 | 51.34528 | -0.56593 | 142 ft | 75 kts | 60° |
| 2026-04-22 18:01 | 51.34786 | -0.55949 | 86 ft | 57 kts | 62° |
| 2026-04-22 18:01 | 51.34941 | -0.55524 | 80 ft | 29 kts | 59° |
| 2026-04-22 18:01 | 51.35014 | -0.55414 | 82 ft | 12 kts | 341° |
| 2026-04-22 18:01 | 51.35080 | -0.55495 | 86 ft | 14 kts | 280° |
| 2026-04-22 18:02 | 51.35028 | -0.55658 | 88 ft | 18 kts | 237° |
| 2026-04-22 18:02 | 51.34963 | -0.55819 | 88 ft | 18 kts | 237° |
| 2026-04-22 18:02 | 51.34909 | -0.55992 | 87 ft | 16 kts | 267° |
| 2026-04-22 18:02 | 51.34957 | -0.56130 | 89 ft | 13 kts | 330° |
| 2026-04-22 18:03 | 51.35020 | -0.56151 | 94 ft | 7 kts | 1° |
| 2026-04-22 18:03 | 51.35066 | -0.56169 | 97 ft | 7 kts | 340° |
| 2026-04-22 18:03 | 51.35107 | -0.56194 | 96 ft | 0 kts | 340° |
| 2026-04-22 18:03 | 51.35109 | -0.56195 | 96 ft | 0 kts | 342° |